DIYO

Yamoussoukro Airport

Yamoussoukro, Côte D’Ivoire
TAF DIYO 212300Z 2200/2224 21008KT 9999 BKN010 PROB30 TEMPO 2200/2204 4000 TSRA BKN011 FEW023CB BKN030 PROB40 2204/2208 4000 BR PROB30 TEMPO 2214/2220TS BKN012 FEW023CB
Issued Valid From Valid To
Sep-21 @ 23:00 UTC
(5 hours ago)
Sep-22 @ 00:00 UTC
(4 hours ago)
Sep-23 @ 00:00 UTC
(in 20 hours)
to
to
to
TAF DIYO 212300Z 2200/2224 21008KT 9999 BKN010 PROB30 TEMPO 2200/2204 4000 TSRA BKN011 FEW023CB BKN030 PROB40 2204/2208 4000 BR PROB30 TEMPO 2214/2220TS BKN012 FEW023CB
Issued Sep-21 @ 23:00 UTC
(5 hours ago)
Valid From Sep-22 @ 00:00 UTC
(4 hours ago)
Valid To Sep-23 @ 00:00 UTC
(in 20 hours)
-
-
-